sensor_id;sensor_type;location;lat;lon;timestamp;P1;durP1;ratioP1;P2;durP2;ratioP2
11935;SDS011;6027;48.576;9.180;2023-08-17T00:01:37;4.38;;;3.97;;
11935;SDS011;6027;48.576;9.180;2023-08-17T00:04:03;4.80;;;4.30;;
11935;SDS011;6027;48.576;9.180;2023-08-17T00:06:28;6.78;;;3.92;;
11935;SDS011;6027;48.576;9.180;2023-08-17T00:08:54;5.00;;;4.13;;
11935;SDS011;6027;48.576;9.180;2023-08-17T00:11:19;4.93;;;4.43;;
11935;SDS011;6027;48.576;9.180;2023-08-17T00:13:45;5.65;;;4.65;;
11935;SDS011;6027;48.576;9.180;2023-08-17T00:16:10;7.63;;;4.28;;
11935;SDS011;6027;48.576;9.180;2023-08-17T00:18:35;4.55;;;4.15;;
11935;SDS011;6027;48.576;9.180;2023-08-17T00:21:01;6.18;;;4.55;;
11935;SDS011;6027;48.576;9.180;2023-08-17T00:23:26;6.10;;;4.30;;
11935;SDS011;6027;48.576;9.180;2023-08-17T00:25:52;5.20;;;4.30;;
11935;SDS011;6027;48.576;9.180;2023-08-17T00:28:18;5.28;;;4.63;;
11935;SDS011;6027;48.576;9.180;2023-08-17T00:30:43;9.45;;;5.07;;
11935;SDS011;6027;48.576;9.180;2023-08-17T00:33:09;10.93;;;4.97;;
11935;SDS011;6027;48.576;9.180;2023-08-17T00:35:35;6.88;;;5.25;;
11935;SDS011;6027;48.576;9.180;2023-08-17T00:38:00;5.05;;;4.63;;
11935;SDS011;6027;48.576;9.180;2023-08-17T00:40:26;6.25;;;4.40;;
11935;SDS011;6027;48.576;9.180;2023-08-17T00:42:51;6.80;;;4.47;;
11935;SDS011;6027;48.576;9.180;2023-08-17T00:45:17;4.72;;;4.30;;
11935;SDS011;6027;48.576;9.180;2023-08-17T00:47:44;4.65;;;4.25;;
11935;SDS011;6027;48.576;9.180;2023-08-17T00:50:10;7.38;;;4.95;;
11935;SDS011;6027;48.576;9.180;2023-08-17T00:52:36;5.72;;;4.90;;
11935;SDS011;6027;48.576;9.180;2023-08-17T00:55:02;5.93;;;4.45;;
11935;SDS011;6027;48.576;9.180;2023-08-17T00:57:29;5.28;;;4.88;;
11935;SDS011;6027;48.576;9.180;2023-08-17T00:59:56;4.72;;;4.32;;
11935;SDS011;6027;48.576;9.180;2023-08-17T01:02:23;5.20;;;4.70;;
11935;SDS011;6027;48.576;9.180;2023-08-17T01:04:49;9.65;;;4.97;;
11935;SDS011;6027;48.576;9.180;2023-08-17T01:07:14;4.97;;;4.57;;
11935;SDS011;6027;48.576;9.180;2023-08-17T01:09:39;6.97;;;4.90;;
11935;SDS011;6027;48.576;9.180;2023-08-17T01:12:08;5.53;;;4.97;;
11935;SDS011;6027;48.576;9.180;2023-08-17T01:17:44;6.40;;;5.80;;
11935;SDS011;6027;48.576;9.180;2023-08-17T01:20:17;7.40;;;5.13;;
11935;SDS011;6027;48.576;9.180;2023-08-17T01:22:45;6.60;;;5.30;;
11935;SDS011;6027;48.576;9.180;2023-08-17T01:25:13;6.00;;;5.50;;
11935;SDS011;6027;48.576;9.180;2023-08-17T01:27:43;7.00;;;5.32;;
11935;SDS011;6027;48.576;9.180;2023-08-17T01:30:10;6.43;;;5.55;;
11935;SDS011;6027;48.576;9.180;2023-08-17T01:37:31;5.75;;;4.20;;
11935;SDS011;6027;48.576;9.180;2023-08-17T01:39:59;5.22;;;4.63;;
11935;SDS011;6027;48.576;9.180;2023-08-17T01:42:25;7.00;;;4.80;;
11935;SDS011;6027;48.576;9.180;2023-08-17T01:44:53;5.35;;;4.60;;
11935;SDS011;6027;48.576;9.180;2023-08-17T01:47:22;7.60;;;5.38;;
11935;SDS011;6027;48.576;9.180;2023-08-17T01:49:47;5.43;;;4.93;;
11935;SDS011;6027;48.576;9.180;2023-08-17T01:52:13;4.90;;;4.47;;
11935;SDS011;6027;48.576;9.180;2023-08-17T01:54:38;5.78;;;4.65;;
11935;SDS011;6027;48.576;9.180;2023-08-17T01:57:04;6.28;;;4.70;;
11935;SDS011;6027;48.576;9.180;2023-08-17T01:59:29;5.93;;;4.78;;
11935;SDS011;6027;48.576;9.180;2023-08-17T02:01:54;4.55;;;4.15;;
11935;SDS011;6027;48.576;9.180;2023-08-17T02:04:20;8.40;;;4.97;;
11935;SDS011;6027;48.576;9.180;2023-08-17T02:06:45;5.05;;;4.65;;
11935;SDS011;6027;48.576;9.180;2023-08-17T02:09:11;5.57;;;4.95;;
11935;SDS011;6027;48.576;9.180;2023-08-17T02:11:36;6.10;;;5.53;;
11935;SDS011;6027;48.576;9.180;2023-08-17T02:14:01;6.13;;;5.53;;
11935;SDS011;6027;48.576;9.180;2023-08-17T02:16:27;7.78;;;5.70;;
11935;SDS011;6027;48.576;9.180;2023-08-17T02:18:52;5.78;;;5.13;;
11935;SDS011;6027;48.576;9.180;2023-08-17T02:21:18;4.90;;;4.50;;
11935;SDS011;6027;48.576;9.180;2023-08-17T02:23:43;5.55;;;5.05;;
11935;SDS011;6027;48.576;9.180;2023-08-17T02:26:09;10.27;;;5.03;;
11935;SDS011;6027;48.576;9.180;2023-08-17T02:28:35;5.35;;;4.90;;
11935;SDS011;6027;48.576;9.180;2023-08-17T02:31:01;7.15;;;5.15;;
11935;SDS011;6027;48.576;9.180;2023-08-17T02:33:26;6.63;;;4.82;;
11935;SDS011;6027;48.576;9.180;2023-08-17T02:35:52;6.43;;;4.70;;
11935;SDS011;6027;48.576;9.180;2023-08-17T02:38:18;6.45;;;4.85;;
11935;SDS011;6027;48.576;9.180;2023-08-17T02:40:43;5.30;;;4.80;;
11935;SDS011;6027;48.576;9.180;2023-08-17T02:43:09;4.80;;;4.35;;
11935;SDS011;6027;48.576;9.180;2023-08-17T02:45:34;5.00;;;4.60;;
11935;SDS011;6027;48.576;9.180;2023-08-17T02:48:00;5.20;;;4.70;;
11935;SDS011;6027;48.576;9.180;2023-08-17T02:50:25;5.50;;;5.00;;
11935;SDS011;6027;48.576;9.180;2023-08-17T02:52:51;5.65;;;5.15;;
11935;SDS011;6027;48.576;9.180;2023-08-17T02:55:17;4.85;;;4.43;;
11935;SDS011;6027;48.576;9.180;2023-08-17T02:57:42;4.53;;;4.20;;
11935;SDS011;6027;48.576;9.180;2023-08-17T03:00:08;5.22;;;4.60;;
11935;SDS011;6027;48.576;9.180;2023-08-17T03:02:34;4.53;;;4.13;;
11935;SDS011;6027;48.576;9.180;2023-08-17T03:04:59;4.68;;;4.32;;
11935;SDS011;6027;48.576;9.180;2023-08-17T03:07:25;4.70;;;4.10;;
11935;SDS011;6027;48.576;9.180;2023-08-17T03:09:50;4.95;;;4.55;;
11935;SDS011;6027;48.576;9.180;2023-08-17T03:12:15;5.25;;;4.65;;
11935;SDS011;6027;48.576;9.180;2023-08-17T03:14:41;6.78;;;5.28;;
11935;SDS011;6027;48.576;9.180;2023-08-17T03:17:06;6.90;;;5.05;;
11935;SDS011;6027;48.576;9.180;2023-08-17T03:19:32;5.85;;;5.35;;
11935;SDS011;6027;48.576;9.180;2023-08-17T03:21:57;5.70;;;5.18;;
11935;SDS011;6027;48.576;9.180;2023-08-17T03:24:23;6.05;;;5.53;;
11935;SDS011;6027;48.576;9.180;2023-08-17T03:26:48;6.65;;;5.60;;
11935;SDS011;6027;48.576;9.180;2023-08-17T03:29:13;6.82;;;5.22;;
11935;SDS011;6027;48.576;9.180;2023-08-17T03:31:39;6.05;;;5.55;;
11935;SDS011;6027;48.576;9.180;2023-08-17T03:34:04;5.90;;;5.30;;
11935;SDS011;6027;48.576;9.180;2023-08-17T03:36:30;5.90;;;5.43;;
11935;SDS011;6027;48.576;9.180;2023-08-17T03:38:55;6.50;;;5.35;;
11935;SDS011;6027;48.576;9.180;2023-08-17T03:41:21;7.93;;;5.00;;
11935;SDS011;6027;48.576;9.180;2023-08-17T03:43:48;6.13;;;4.93;;
11935;SDS011;6027;48.576;9.180;2023-08-17T03:46:14;8.45;;;5.22;;
11935;SDS011;6027;48.576;9.180;2023-08-17T03:48:39;5.63;;;5.15;;
11935;SDS011;6027;48.576;9.180;2023-08-17T03:51:05;6.50;;;5.20;;
11935;SDS011;6027;48.576;9.180;2023-08-17T03:53:30;5.50;;;4.80;;
11935;SDS011;6027;48.576;9.180;2023-08-17T03:55:56;6.50;;;5.68;;
11935;SDS011;6027;48.576;9.180;2023-08-17T03:58:21;7.22;;;5.65;;
11935;SDS011;6027;48.576;9.180;2023-08-17T04:00:50;6.68;;;5.45;;
11935;SDS011;6027;48.576;9.180;2023-08-17T04:03:16;5.65;;;5.15;;
11935;SDS011;6027;48.576;9.180;2023-08-17T04:05:42;5.28;;;4.78;;
11935;SDS011;6027;48.576;9.180;2023-08-17T04:08:07;6.38;;;5.78;;
11935;SDS011;6027;48.576;9.180;2023-08-17T04:10:33;8.80;;;6.07;;
11935;SDS011;6027;48.576;9.180;2023-08-17T04:12:58;9.18;;;6.30;;
11935;SDS011;6027;48.576;9.180;2023-08-17T04:15:24;10.02;;;6.78;;
11935;SDS011;6027;48.576;9.180;2023-08-17T04:17:49;16.05;;;7.22;;
11935;SDS011;6027;48.576;9.180;2023-08-17T04:20:15;12.35;;;6.53;;
11935;SDS011;6027;48.576;9.180;2023-08-17T04:22:41;15.25;;;6.65;;
11935;SDS011;6027;48.576;9.180;2023-08-17T04:25:06;9.02;;;6.75;;
11935;SDS011;6027;48.576;9.180;2023-08-17T04:27:32;14.63;;;7.53;;
11935;SDS011;6027;48.576;9.180;2023-08-17T04:29:58;14.98;;;7.43;;
11935;SDS011;6027;48.576;9.180;2023-08-17T04:32:23;12.15;;;7.80;;
11935;SDS011;6027;48.576;9.180;2023-08-17T04:34:49;18.35;;;8.27;;
11935;SDS011;6027;48.576;9.180;2023-08-17T04:37:14;18.27;;;8.43;;
11935;SDS011;6027;48.576;9.180;2023-08-17T04:39:40;15.82;;;8.00;;
11935;SDS011;6027;48.576;9.180;2023-08-17T04:42:08;19.38;;;8.43;;
11935;SDS011;6027;48.576;9.180;2023-08-17T04:44:34;15.52;;;8.25;;
11935;SDS011;6027;48.576;9.180;2023-08-17T04:46:59;11.57;;;7.53;;
11935;SDS011;6027;48.576;9.180;2023-08-17T04:49:24;17.48;;;7.82;;
11935;SDS011;6027;48.576;9.180;2023-08-17T04:51:53;18.35;;;8.20;;
11935;SDS011;6027;48.576;9.180;2023-08-17T04:56:46;15.73;;;8.48;;
11935;SDS011;6027;48.576;9.180;2023-08-17T04:59:11;13.73;;;8.90;;
11935;SDS011;6027;48.576;9.180;2023-08-17T05:01:37;16.33;;;9.38;;
11935;SDS011;6027;48.576;9.180;2023-08-17T05:04:03;18.75;;;10.65;;
11935;SDS011;6027;48.576;9.180;2023-08-17T05:06:29;21.50;;;10.10;;
11935;SDS011;6027;48.576;9.180;2023-08-17T05:08:55;21.40;;;10.40;;
11935;SDS011;6027;48.576;9.180;2023-08-17T05:11:21;23.10;;;10.80;;
11935;SDS011;6027;48.576;9.180;2023-08-17T05:13:46;17.63;;;10.10;;
11935;SDS011;6027;48.576;9.180;2023-08-17T05:16:12;19.23;;;10.52;;
11935;SDS011;6027;48.576;9.180;2023-08-17T05:18:38;25.73;;;10.57;;
11935;SDS011;6027;48.576;9.180;2023-08-17T05:21:03;17.70;;;10.82;;
11935;SDS011;6027;48.576;9.180;2023-08-17T05:23:29;17.75;;;10.32;;
11935;SDS011;6027;48.576;9.180;2023-08-17T05:25:54;24.73;;;9.52;;
11935;SDS011;6027;48.576;9.180;2023-08-17T05:28:20;20.25;;;11.20;;
11935;SDS011;6027;48.576;9.180;2023-08-17T05:30:46;24.27;;;10.38;;
11935;SDS011;6027;48.576;9.180;2023-08-17T05:33:11;32.70;;;11.23;;
11935;SDS011;6027;48.576;9.180;2023-08-17T05:35:37;16.20;;;10.52;;
11935;SDS011;6027;48.576;9.180;2023-08-17T05:38:02;14.57;;;11.48;;
11935;SDS011;6027;48.576;9.180;2023-08-17T05:40:31;19.27;;;11.60;;
11935;SDS011;6027;48.576;9.180;2023-08-17T05:42:57;16.70;;;10.98;;
11935;SDS011;6027;48.576;9.180;2023-08-17T05:45:22;22.35;;;12.15;;
11935;SDS011;6027;48.576;9.180;2023-08-17T05:47:48;21.65;;;12.13;;
11935;SDS011;6027;48.576;9.180;2023-08-17T05:50:13;29.77;;;13.15;;
11935;SDS011;6027;48.576;9.180;2023-08-17T05:52:40;31.15;;;12.52;;
11935;SDS011;6027;48.576;9.180;2023-08-17T05:55:06;16.30;;;13.05;;
11935;SDS011;6027;48.576;9.180;2023-08-17T05:57:31;16.08;;;12.77;;
11935;SDS011;6027;48.576;9.180;2023-08-17T05:59:57;13.90;;;12.40;;
11935;SDS011;6027;48.576;9.180;2023-08-17T06:02:26;15.68;;;12.73;;
11935;SDS011;6027;48.576;9.180;2023-08-17T06:04:51;13.70;;;11.50;;
11935;SDS011;6027;48.576;9.180;2023-08-17T06:07:16;14.00;;;10.65;;
11935;SDS011;6027;48.576;9.180;2023-08-17T06:09:42;12.57;;;11.27;;
11935;SDS011;6027;48.576;9.180;2023-08-17T06:12:07;12.52;;;10.35;;
11935;SDS011;6027;48.576;9.180;2023-08-17T06:14:33;13.98;;;11.05;;
11935;SDS011;6027;48.576;9.180;2023-08-17T06:16:59;13.45;;;10.95;;
11935;SDS011;6027;48.576;9.180;2023-08-17T06:19:24;10.80;;;9.68;;
11935;SDS011;6027;48.576;9.180;2023-08-17T06:21:50;7.82;;;7.13;;
11935;SDS011;6027;48.576;9.180;2023-08-17T06:24:15;10.63;;;8.27;;
11935;SDS011;6027;48.576;9.180;2023-08-17T06:26:41;9.05;;;7.85;;
11935;SDS011;6027;48.576;9.180;2023-08-17T06:29:07;9.65;;;8.65;;
11935;SDS011;6027;48.576;9.180;2023-08-17T06:31:32;9.57;;;8.38;;
11935;SDS011;6027;48.576;9.180;2023-08-17T06:33:57;10.02;;;8.75;;
11935;SDS011;6027;48.576;9.180;2023-08-17T06:36:23;11.55;;;8.75;;
11935;SDS011;6027;48.576;9.180;2023-08-17T06:38:48;13.77;;;9.25;;
11935;SDS011;6027;48.576;9.180;2023-08-17T06:41:14;24.38;;;9.68;;
11935;SDS011;6027;48.576;9.180;2023-08-17T06:43:39;14.02;;;9.63;;
11935;SDS011;6027;48.576;9.180;2023-08-17T06:46:04;14.02;;;9.95;;
11935;SDS011;6027;48.576;9.180;2023-08-17T06:48:30;11.05;;;9.80;;
11935;SDS011;6027;48.576;9.180;2023-08-17T06:50:56;12.98;;;10.18;;
11935;SDS011;6027;48.576;9.180;2023-08-17T06:53:22;11.27;;;9.70;;
11935;SDS011;6027;48.576;9.180;2023-08-17T06:55:47;15.00;;;10.00;;
11935;SDS011;6027;48.576;9.180;2023-08-17T06:58:13;10.88;;;9.77;;
11935;SDS011;6027;48.576;9.180;2023-08-17T07:00:38;17.85;;;10.55;;
11935;SDS011;6027;48.576;9.180;2023-08-17T07:03:06;11.05;;;9.13;;
11935;SDS011;6027;48.576;9.180;2023-08-17T07:05:31;12.80;;;9.45;;
11935;SDS011;6027;48.576;9.180;2023-08-17T07:07:57;9.23;;;8.23;;
11935;SDS011;6027;48.576;9.180;2023-08-17T07:10:24;10.43;;;8.93;;
11935;SDS011;6027;48.576;9.180;2023-08-17T07:12:49;12.15;;;9.73;;
11935;SDS011;6027;48.576;9.180;2023-08-17T07:15:16;10.13;;;8.93;;
11935;SDS011;6027;48.576;9.180;2023-08-17T07:17:42;13.20;;;10.00;;
11935;SDS011;6027;48.576;9.180;2023-08-17T07:20:07;11.60;;;10.02;;
11935;SDS011;6027;48.576;9.180;2023-08-17T07:22:33;12.27;;;10.80;;
11935;SDS011;6027;48.576;9.180;2023-08-17T07:24:58;11.85;;;9.98;;
11935;SDS011;6027;48.576;9.180;2023-08-17T07:27:25;10.98;;;9.88;;
11935;SDS011;6027;48.576;9.180;2023-08-17T07:29:50;11.75;;;9.55;;
11935;SDS011;6027;48.576;9.180;2023-08-17T07:32:16;10.98;;;9.88;;
11935;SDS011;6027;48.576;9.180;2023-08-17T07:34:41;10.48;;;9.18;;
11935;SDS011;6027;48.576;9.180;2023-08-17T07:37:06;10.48;;;9.43;;
11935;SDS011;6027;48.576;9.180;2023-08-17T07:39:32;10.32;;;9.35;;
11935;SDS011;6027;48.576;9.180;2023-08-17T07:41:58;9.82;;;8.88;;
11935;SDS011;6027;48.576;9.180;2023-08-17T07:44:24;12.05;;;9.18;;
11935;SDS011;6027;48.576;9.180;2023-08-17T07:46:49;10.65;;;9.43;;
11935;SDS011;6027;48.576;9.180;2023-08-17T07:49:15;10.27;;;9.18;;
11935;SDS011;6027;48.576;9.180;2023-08-17T07:51:40;10.90;;;9.18;;
11935;SDS011;6027;48.576;9.180;2023-08-17T07:54:07;10.55;;;9.43;;
11935;SDS011;6027;48.576;9.180;2023-08-17T07:56:32;9.48;;;8.48;;
11935;SDS011;6027;48.576;9.180;2023-08-17T07:58:58;9.45;;;8.55;;
11935;SDS011;6027;48.576;9.180;2023-08-17T08:01:23;10.57;;;9.48;;
11935;SDS011;6027;48.576;9.180;2023-08-17T08:03:49;9.60;;;8.50;;
11935;SDS011;6027;48.576;9.180;2023-08-17T08:06:15;9.55;;;8.65;;
11935;SDS011;6027;48.576;9.180;2023-08-17T08:08:40;7.90;;;7.20;;
11935;SDS011;6027;48.576;9.180;2023-08-17T08:11:06;8.55;;;7.60;;
11935;SDS011;6027;48.576;9.180;2023-08-17T08:13:31;10.10;;;8.13;;
11935;SDS011;6027;48.576;9.180;2023-08-17T08:15:58;7.97;;;7.28;;
11935;SDS011;6027;48.576;9.180;2023-08-17T08:18:24;8.45;;;7.65;;
11935;SDS011;6027;48.576;9.180;2023-08-17T08:20:50;8.57;;;7.78;;
11935;SDS011;6027;48.576;9.180;2023-08-17T08:23:15;8.77;;;8.02;;
11935;SDS011;6027;48.576;9.180;2023-08-17T08:25:41;9.00;;;8.20;;
11935;SDS011;6027;48.576;9.180;2023-08-17T08:28:07;10.18;;;9.05;;
11935;SDS011;6027;48.576;9.180;2023-08-17T08:30:33;9.15;;;8.35;;
11935;SDS011;6027;48.576;9.180;2023-08-17T08:32:59;10.00;;;9.10;;
11935;SDS011;6027;48.576;9.180;2023-08-17T08:35:25;9.85;;;8.95;;
11935;SDS011;6027;48.576;9.180;2023-08-17T08:37:50;10.18;;;9.15;;
11935;SDS011;6027;48.576;9.180;2023-08-17T08:40:16;10.82;;;9.73;;
11935;SDS011;6027;48.576;9.180;2023-08-17T08:42:42;10.70;;;9.75;;
11935;SDS011;6027;48.576;9.180;2023-08-17T08:45:08;10.65;;;9.77;;
11935;SDS011;6027;48.576;9.180;2023-08-17T08:47:35;10.93;;;9.88;;
11935;SDS011;6027;48.576;9.180;2023-08-17T08:50:02;11.10;;;10.05;;
11935;SDS011;6027;48.576;9.180;2023-08-17T08:52:42;10.38;;;9.48;;
11935;SDS011;6027;48.576;9.180;2023-08-17T08:55:15;11.45;;;10.38;;
11935;SDS011;6027;48.576;9.180;2023-08-17T08:57:48;10.68;;;9.77;;
11935;SDS011;6027;48.576;9.180;2023-08-17T09:00:14;9.88;;;8.98;;
11935;SDS011;6027;48.576;9.180;2023-08-17T09:02:40;11.90;;;10.90;;
11935;SDS011;6027;48.576;9.180;2023-08-17T09:05:08;10.60;;;9.60;;
11935;SDS011;6027;48.576;9.180;2023-08-17T09:07:35;10.88;;;9.93;;
11935;SDS011;6027;48.576;9.180;2023-08-17T09:10:02;11.75;;;10.70;;
11935;SDS011;6027;48.576;9.180;2023-08-17T09:12:28;11.63;;;10.43;;
11935;SDS011;6027;48.576;9.180;2023-08-17T09:14:57;10.65;;;9.75;;
11935;SDS011;6027;48.576;9.180;2023-08-17T09:17:24;12.48;;;11.00;;
11935;SDS011;6027;48.576;9.180;2023-08-17T09:19:50;11.23;;;10.10;;
11935;SDS011;6027;48.576;9.180;2023-08-17T09:22:21;10.48;;;9.48;;
11935;SDS011;6027;48.576;9.180;2023-08-17T09:25:02;11.43;;;10.30;;
11935;SDS011;6027;48.576;9.180;2023-08-17T09:27:28;10.20;;;9.35;;
11935;SDS011;6027;48.576;9.180;2023-08-17T09:30:00;10.30;;;9.40;;
11935;SDS011;6027;48.576;9.180;2023-08-17T09:32:32;11.25;;;10.25;;
11935;SDS011;6027;48.576;9.180;2023-08-17T09:35:02;10.75;;;9.57;;
11935;SDS011;6027;48.576;9.180;2023-08-17T09:37:28;9.60;;;8.70;;
11935;SDS011;6027;48.576;9.180;2023-08-17T09:39:54;10.23;;;9.32;;
11935;SDS011;6027;48.576;9.180;2023-08-17T09:42:21;9.40;;;8.38;;
11935;SDS011;6027;48.576;9.180;2023-08-17T09:44:48;10.27;;;8.55;;
11935;SDS011;6027;48.576;9.180;2023-08-17T09:47:16;9.73;;;8.82;;
11935;SDS011;6027;48.576;9.180;2023-08-17T09:49:52;10.10;;;8.80;;
11935;SDS011;6027;48.576;9.180;2023-08-17T09:52:18;9.25;;;8.35;;
11935;SDS011;6027;48.576;9.180;2023-08-17T09:54:45;8.55;;;7.80;;
11935;SDS011;6027;48.576;9.180;2023-08-17T09:57:12;9.27;;;8.48;;
11935;SDS011;6027;48.576;9.180;2023-08-17T09:59:38;9.63;;;8.75;;
11935;SDS011;6027;48.576;9.180;2023-08-17T10:02:03;8.95;;;7.72;;
11935;SDS011;6027;48.576;9.180;2023-08-17T10:04:44;7.88;;;7.18;;
11935;SDS011;6027;48.576;9.180;2023-08-17T10:07:17;9.88;;;7.70;;
11935;SDS011;6027;48.576;9.180;2023-08-17T10:09:45;8.00;;;7.32;;
11935;SDS011;6027;48.576;9.180;2023-08-17T10:12:16;7.85;;;7.18;;
11935;SDS011;6027;48.576;9.180;2023-08-17T10:14:45;8.25;;;7.45;;
11935;SDS011;6027;48.576;9.180;2023-08-17T10:17:22;8.60;;;7.75;;
11935;SDS011;6027;48.576;9.180;2023-08-17T10:19:57;8.60;;;7.90;;
11935;SDS011;6027;48.576;9.180;2023-08-17T10:25:11;6.65;;;6.05;;
11935;SDS011;6027;48.576;9.180;2023-08-17T10:27:39;7.25;;;6.55;;
11935;SDS011;6027;48.576;9.180;2023-08-17T10:30:07;6.70;;;5.95;;
11935;SDS011;6027;48.576;9.180;2023-08-17T10:32:35;7.07;;;6.35;;
11935;SDS011;6027;48.576;9.180;2023-08-17T10:35:01;6.78;;;6.20;;
11935;SDS011;6027;48.576;9.180;2023-08-17T10:37:28;6.47;;;5.88;;
11935;SDS011;6027;48.576;9.180;2023-08-17T10:39:54;6.78;;;6.05;;
11935;SDS011;6027;48.576;9.180;2023-08-17T10:42:53;5.95;;;5.50;;
11935;SDS011;6027;48.576;9.180;2023-08-17T10:47:47;6.05;;;5.55;;
11935;SDS011;6027;48.576;9.180;2023-08-17T10:50:22;5.90;;;5.40;;
11935;SDS011;6027;48.576;9.180;2023-08-17T10:52:49;6.18;;;5.57;;
11935;SDS011;6027;48.576;9.180;2023-08-17T10:55:16;6.07;;;5.45;;
11935;SDS011;6027;48.576;9.180;2023-08-17T10:57:43;9.57;;;6.28;;
11935;SDS011;6027;48.576;9.180;2023-08-17T11:00:13;7.28;;;5.72;;
11935;SDS011;6027;48.576;9.180;2023-08-17T11:02:44;5.80;;;5.30;;
11935;SDS011;6027;48.576;9.180;2023-08-17T11:05:21;5.65;;;5.10;;
11935;SDS011;6027;48.576;9.180;2023-08-17T11:08:02;5.80;;;5.03;;
11935;SDS011;6027;48.576;9.180;2023-08-17T11:10:29;6.20;;;5.68;;
11935;SDS011;6027;48.576;9.180;2023-08-17T11:12:58;5.75;;;5.22;;
11935;SDS011;6027;48.576;9.180;2023-08-17T11:15:37;5.82;;;5.38;;
11935;SDS011;6027;48.576;9.180;2023-08-17T11:18:07;5.28;;;4.88;;
11935;SDS011;6027;48.576;9.180;2023-08-17T11:20:34;5.38;;;4.97;;
11935;SDS011;6027;48.576;9.180;2023-08-17T11:23:00;5.78;;;5.28;;
11935;SDS011;6027;48.576;9.180;2023-08-17T11:25:26;5.70;;;5.20;;
11935;SDS011;6027;48.576;9.180;2023-08-17T11:27:52;5.40;;;4.93;;
11935;SDS011;6027;48.576;9.180;2023-08-17T11:30:20;5.25;;;4.75;;
11935;SDS011;6027;48.576;9.180;2023-08-17T11:32:46;5.50;;;5.00;;
11935;SDS011;6027;48.576;9.180;2023-08-17T11:35:11;5.60;;;5.10;;
11935;SDS011;6027;48.576;9.180;2023-08-17T11:40:04;5.40;;;4.78;;
11935;SDS011;6027;48.576;9.180;2023-08-17T11:42:30;6.85;;;4.90;;
11935;SDS011;6027;48.576;9.180;2023-08-17T11:44:56;4.95;;;4.55;;
11935;SDS011;6027;48.576;9.180;2023-08-17T11:47:21;4.57;;;4.28;;
11935;SDS011;6027;48.576;9.180;2023-08-17T11:49:47;4.30;;;4.00;;
11935;SDS011;6027;48.576;9.180;2023-08-17T11:52:14;5.28;;;4.20;;
11935;SDS011;6027;48.576;9.180;2023-08-17T11:54:41;5.00;;;4.55;;
11935;SDS011;6027;48.576;9.180;2023-08-17T11:57:07;4.90;;;4.43;;
11935;SDS011;6027;48.576;9.180;2023-08-17T11:59:32;4.70;;;4.38;;
11935;SDS011;6027;48.576;9.180;2023-08-17T12:02:02;4.95;;;4.25;;
11935;SDS011;6027;48.576;9.180;2023-08-17T12:04:28;4.65;;;4.10;;
11935;SDS011;6027;48.576;9.180;2023-08-17T12:06:53;4.32;;;3.90;;
11935;SDS011;6027;48.576;9.180;2023-08-17T12:09:19;4.82;;;4.20;;
11935;SDS011;6027;48.576;9.180;2023-08-17T12:11:46;4.95;;;4.45;;
11935;SDS011;6027;48.576;9.180;2023-08-17T12:14:12;4.82;;;4.32;;
11935;SDS011;6027;48.576;9.180;2023-08-17T12:16:47;4.80;;;4.30;;
11935;SDS011;6027;48.576;9.180;2023-08-17T12:19:16;4.85;;;4.40;;
11935;SDS011;6027;48.576;9.180;2023-08-17T12:21:44;5.00;;;4.60;;
11935;SDS011;6027;48.576;9.180;2023-08-17T12:24:09;4.63;;;4.18;;
11935;SDS011;6027;48.576;9.180;2023-08-17T12:26:40;4.47;;;4.07;;
11935;SDS011;6027;48.576;9.180;2023-08-17T12:29:07;4.78;;;4.35;;
11935;SDS011;6027;48.576;9.180;2023-08-17T12:31:32;4.45;;;4.05;;
11935;SDS011;6027;48.576;9.180;2023-08-17T12:33:59;4.75;;;4.20;;
11935;SDS011;6027;48.576;9.180;2023-08-17T12:36:24;4.93;;;4.43;;
11935;SDS011;6027;48.576;9.180;2023-08-17T12:38:50;5.32;;;4.75;;
11935;SDS011;6027;48.576;9.180;2023-08-17T12:41:15;4.90;;;4.50;;
11935;SDS011;6027;48.576;9.180;2023-08-17T12:43:42;5.50;;;4.95;;
11935;SDS011;6027;48.576;9.180;2023-08-17T12:46:08;5.45;;;4.93;;
11935;SDS011;6027;48.576;9.180;2023-08-17T12:48:33;5.38;;;4.88;;
11935;SDS011;6027;48.576;9.180;2023-08-17T12:50:59;7.20;;;5.45;;
11935;SDS011;6027;48.576;9.180;2023-08-17T12:53:24;6.05;;;4.65;;
11935;SDS011;6027;48.576;9.180;2023-08-17T12:55:49;5.15;;;4.53;;
11935;SDS011;6027;48.576;9.180;2023-08-17T12:58:15;5.65;;;4.75;;
11935;SDS011;6027;48.576;9.180;2023-08-17T13:00:40;5.57;;;4.70;;
11935;SDS011;6027;48.576;9.180;2023-08-17T13:03:06;9.82;;;6.95;;
11935;SDS011;6027;48.576;9.180;2023-08-17T13:05:32;7.18;;;6.47;;
11935;SDS011;6027;48.576;9.180;2023-08-17T13:07:58;7.80;;;5.68;;
11935;SDS011;6027;48.576;9.180;2023-08-17T13:10:23;6.50;;;5.90;;
11935;SDS011;6027;48.576;9.180;2023-08-17T13:12:49;6.38;;;5.25;;
11935;SDS011;6027;48.576;9.180;2023-08-17T13:15:19;5.47;;;4.97;;
11935;SDS011;6027;48.576;9.180;2023-08-17T13:17:45;6.05;;;5.03;;
11935;SDS011;6027;48.576;9.180;2023-08-17T13:20:10;5.97;;;5.20;;
11935;SDS011;6027;48.576;9.180;2023-08-17T13:22:36;5.57;;;5.07;;
11935;SDS011;6027;48.576;9.180;2023-08-17T13:25:02;5.30;;;4.80;;
11935;SDS011;6027;48.576;9.180;2023-08-17T13:27:27;6.50;;;5.90;;
11935;SDS011;6027;48.576;9.180;2023-08-17T13:29:53;5.10;;;4.60;;
11935;SDS011;6027;48.576;9.180;2023-08-17T13:32:19;4.90;;;4.38;;
11935;SDS011;6027;48.576;9.180;2023-08-17T13:34:44;5.45;;;4.95;;
11935;SDS011;6027;48.576;9.180;2023-08-17T13:37:09;5.80;;;4.40;;
11935;SDS011;6027;48.576;9.180;2023-08-17T13:39:35;5.25;;;4.80;;
11935;SDS011;6027;48.576;9.180;2023-08-17T13:42:00;5.28;;;4.78;;
11935;SDS011;6027;48.576;9.180;2023-08-17T13:44:25;5.55;;;4.88;;
11935;SDS011;6027;48.576;9.180;2023-08-17T13:46:51;6.97;;;5.00;;
11935;SDS011;6027;48.576;9.180;2023-08-17T13:49:16;7.85;;;5.07;;
11935;SDS011;6027;48.576;9.180;2023-08-17T13:51:42;5.35;;;4.85;;
11935;SDS011;6027;48.576;9.180;2023-08-17T13:54:07;4.93;;;4.45;;
11935;SDS011;6027;48.576;9.180;2023-08-17T13:56:32;5.75;;;4.82;;
11935;SDS011;6027;48.576;9.180;2023-08-17T13:58:58;5.15;;;4.72;;
11935;SDS011;6027;48.576;9.180;2023-08-17T14:01:23;6.25;;;4.70;;
11935;SDS011;6027;48.576;9.180;2023-08-17T14:03:49;5.40;;;4.90;;
11935;SDS011;6027;48.576;9.180;2023-08-17T14:06:14;6.90;;;5.15;;
11935;SDS011;6027;48.576;9.180;2023-08-17T14:08:40;4.90;;;4.50;;
11935;SDS011;6027;48.576;9.180;2023-08-17T14:11:06;6.82;;;5.22;;
11935;SDS011;6027;48.576;9.180;2023-08-17T14:13:32;5.50;;;5.05;;
11935;SDS011;6027;48.576;9.180;2023-08-17T14:15:59;5.53;;;5.10;;
11935;SDS011;6027;48.576;9.180;2023-08-17T14:18:24;5.72;;;5.10;;
11935;SDS011;6027;48.576;9.180;2023-08-17T14:20:51;5.18;;;4.72;;
11935;SDS011;6027;48.576;9.180;2023-08-17T14:23:16;9.43;;;5.00;;
11935;SDS011;6027;48.576;9.180;2023-08-17T14:25:42;5.57;;;4.63;;
11935;SDS011;6027;48.576;9.180;2023-08-17T14:28:07;5.63;;;5.15;;
11935;SDS011;6027;48.576;9.180;2023-08-17T14:30:33;6.00;;;5.40;;
11935;SDS011;6027;48.576;9.180;2023-08-17T14:32:59;5.40;;;4.93;;
11935;SDS011;6027;48.576;9.180;2023-08-17T14:35:25;5.97;;;5.20;;
11935;SDS011;6027;48.576;9.180;2023-08-17T14:37:53;6.22;;;5.63;;
11935;SDS011;6027;48.576;9.180;2023-08-17T14:40:23;6.40;;;5.75;;
11935;SDS011;6027;48.576;9.180;2023-08-17T14:42:48;5.65;;;5.15;;
11935;SDS011;6027;48.576;9.180;2023-08-17T14:45:14;5.97;;;5.38;;
11935;SDS011;6027;48.576;9.180;2023-08-17T14:47:39;5.57;;;5.10;;
11935;SDS011;6027;48.576;9.180;2023-08-17T14:50:04;7.00;;;5.20;;
11935;SDS011;6027;48.576;9.180;2023-08-17T14:52:31;5.28;;;4.78;;
11935;SDS011;6027;48.576;9.180;2023-08-17T14:54:56;5.97;;;4.45;;
11935;SDS011;6027;48.576;9.180;2023-08-17T14:57:22;6.68;;;5.15;;
11935;SDS011;6027;48.576;9.180;2023-08-17T15:02:15;5.75;;;5.25;;
11935;SDS011;6027;48.576;9.180;2023-08-17T15:04:43;7.35;;;5.68;;
11935;SDS011;6027;48.576;9.180;2023-08-17T15:07:08;5.30;;;4.80;;
11935;SDS011;6027;48.576;9.180;2023-08-17T15:09:37;5.13;;;4.68;;
11935;SDS011;6027;48.576;9.180;2023-08-17T15:12:03;6.20;;;5.70;;